createdAt,value
2018-08-23T00:01:20.930Z,1017.41
2018-08-23T00:02:48.236Z,1017.39
2018-08-23T00:04:15.574Z,1017.40
2018-08-23T00:05:43.136Z,1017.40
2018-08-23T00:07:10.672Z,1017.41
2018-08-23T00:08:38.146Z,1017.40
2018-08-23T00:10:05.598Z,1017.40
2018-08-23T00:11:32.090Z,1017.39
2018-08-23T00:12:59.476Z,1017.40
2018-08-23T00:14:25.969Z,1017.38
2018-08-23T00:15:51.988Z,1017.38
2018-08-23T00:17:18.539Z,1017.37
2018-08-23T00:18:46.109Z,1017.36
2018-08-23T00:20:13.541Z,1017.36
2018-08-23T00:21:41.138Z,1017.36
2018-08-23T00:23:08.617Z,1017.36
2018-08-23T00:24:36.115Z,1017.34
2018-08-23T00:26:02.549Z,1017.32
2018-08-23T00:27:28.986Z,1017.31
2018-08-23T00:28:56.394Z,1017.31
2018-08-23T00:30:23.781Z,1017.29
2018-08-23T00:31:51.269Z,1017.29
2018-08-23T00:33:18.688Z,1017.27
2018-08-23T00:34:46.254Z,1017.26
2018-08-23T00:36:12.645Z,1017.26
2018-08-23T00:37:40.115Z,1017.23
2018-08-23T00:39:07.619Z,1017.25
2018-08-23T00:40:35.188Z,1017.23
2018-08-23T00:42:01.368Z,1017.19
2018-08-23T00:43:29.061Z,1017.18
2018-08-23T00:44:56.511Z,1017.16
2018-08-23T00:46:24.048Z,1017.16
2018-08-23T00:47:51.032Z,1017.16
2018-08-23T00:49:18.684Z,1017.15
2018-08-23T00:50:46.019Z,1017.14
2018-08-23T00:52:13.572Z,1017.14
2018-08-23T00:53:40.900Z,1017.14
2018-08-23T00:55:08.583Z,1017.16
2018-08-23T00:56:36.034Z,1017.16
2018-08-23T00:58:02.552Z,1017.15
2018-08-23T00:59:29.704Z,1017.14
2018-08-23T01:00:55.980Z,1017.14
2018-08-23T01:02:22.674Z,1017.12
2018-08-23T01:03:48.955Z,1017.09
2018-08-23T01:05:16.406Z,1017.09
2018-08-23T01:06:44.147Z,1017.08
2018-08-23T01:08:10.366Z,1017.09
2018-08-23T01:09:36.540Z,1017.07
2018-08-23T01:11:03.871Z,1017.07
2018-08-23T01:12:31.205Z,1017.06
2018-08-23T01:13:58.708Z,1017.06
2018-08-23T01:15:26.036Z,1017.05
2018-08-23T01:16:52.820Z,1017.03
2018-08-23T01:18:20.666Z,1017.01
2018-08-23T01:19:49.065Z,1016.99
2018-08-23T01:21:14.595Z,1016.97
2018-08-23T01:22:41.867Z,1016.96
2018-08-23T01:24:09.525Z,1016.95
2018-08-23T01:25:37.231Z,1016.95
2018-08-23T01:27:04.734Z,1016.94
2018-08-23T01:28:32.043Z,1016.94
2018-08-23T01:29:58.503Z,1016.93
2018-08-23T01:31:24.896Z,1016.91
2018-08-23T01:32:52.428Z,1016.89
2018-08-23T01:34:18.425Z,1016.88
2018-08-23T01:35:45.780Z,1016.88
2018-08-23T01:37:13.343Z,1016.85
2018-08-23T01:38:40.831Z,1016.82
2018-08-23T01:40:08.321Z,1016.82
2018-08-23T01:41:35.880Z,1016.83
2018-08-23T01:43:03.219Z,1016.82
2018-08-23T01:44:30.794Z,1016.80
2018-08-23T01:45:58.149Z,1016.80
2018-08-23T01:47:24.932Z,1016.80
2018-08-23T01:48:52.387Z,1016.76
2018-08-23T01:50:19.898Z,1016.74
2018-08-23T01:51:47.258Z,1016.74
2018-08-23T01:53:14.852Z,1016.72
2018-08-23T01:54:42.128Z,1016.69
2018-08-23T01:56:09.756Z,1016.66
2018-08-23T01:57:37.211Z,1016.65
2018-08-23T01:59:04.698Z,1016.64
2018-08-23T02:00:31.930Z,1016.63
2018-08-23T02:01:58.499Z,1016.62
2018-08-23T02:03:26.075Z,1016.61
2018-08-23T02:04:53.331Z,1016.59
2018-08-23T02:06:20.849Z,1016.58
2018-08-23T02:07:48.205Z,1016.57
2018-08-23T02:09:14.463Z,1016.56
2018-08-23T02:10:40.693Z,1016.55
2018-08-23T02:12:08.345Z,1016.53
2018-08-23T02:13:35.700Z,1016.50
2018-08-23T02:15:03.119Z,1016.51
2018-08-23T02:16:30.751Z,1016.51
2018-08-23T02:17:58.138Z,1016.51
2018-08-23T02:19:25.177Z,1016.49
2018-08-23T02:20:52.252Z,1016.47
2018-08-23T02:22:19.868Z,1016.42
2018-08-23T02:23:47.064Z,1016.42
2018-08-23T02:25:14.247Z,1016.39
2018-08-23T02:26:40.719Z,1016.38
2018-08-23T02:28:07.988Z,1016.35
2018-08-23T02:29:34.217Z,1016.31
2018-08-23T02:31:00.505Z,1016.30
2018-08-23T02:32:26.774Z,1016.29
2018-08-23T02:33:53.611Z,1016.28
2018-08-23T02:35:20.004Z,1016.26
2018-08-23T02:36:47.320Z,1016.25
2018-08-23T02:38:14.890Z,1016.23
2018-08-23T02:39:42.036Z,1016.21
2018-08-23T02:41:09.804Z,1016.21
2018-08-23T02:42:37.217Z,1016.22
2018-08-23T02:44:04.487Z,1016.21
2018-08-23T02:45:32.206Z,1016.21
2018-08-23T02:46:59.430Z,1016.18
2018-08-23T02:48:26.914Z,1016.18
2018-08-23T02:49:54.501Z,1016.15
2018-08-23T02:51:22.947Z,1016.13
2018-08-23T02:52:49.183Z,1016.11
2018-08-23T02:54:16.710Z,1016.09
2018-08-23T02:55:44.317Z,1016.08
2018-08-23T02:57:19.794Z,1016.08
2018-08-23T02:58:39.272Z,1016.08
2018-08-23T03:00:06.476Z,1016.06
2018-08-23T03:01:34.081Z,1016.08
2018-08-23T03:03:01.333Z,1016.08
2018-08-23T03:04:28.927Z,1016.09
2018-08-23T03:05:55.549Z,1016.10
2018-08-23T03:07:23.108Z,1016.13
2018-08-23T03:08:49.386Z,1016.16
2018-08-23T03:10:16.789Z,1016.15
2018-08-23T03:11:44.214Z,1016.14
2018-08-23T03:13:10.436Z,1016.15
2018-08-23T03:14:37.966Z,1016.13
2018-08-23T03:16:05.553Z,1016.11
2018-08-23T03:17:32.711Z,1016.09
2018-08-23T03:18:59.368Z,1016.08
2018-08-23T03:20:34.828Z,1016.09
2018-08-23T03:22:01.691Z,1016.08
2018-08-23T03:23:19.879Z,1016.09
2018-08-23T03:24:47.314Z,1016.09
2018-08-23T03:26:14.687Z,1016.11
2018-08-23T03:27:42.009Z,1016.10
2018-08-23T03:29:09.526Z,1016.10
2018-08-23T03:30:37.065Z,1016.04
2018-08-23T03:32:05.569Z,1016.04
2018-08-23T03:33:31.934Z,1015.99
2018-08-23T03:34:59.171Z,1015.96
2018-08-23T03:36:26.570Z,1015.98
2018-08-23T03:37:53.943Z,1015.98
2018-08-23T03:39:21.416Z,1015.96
2018-08-23T03:40:47.295Z,1015.96
2018-08-23T03:42:14.618Z,1015.96
2018-08-23T03:43:41.959Z,1015.97
2018-08-23T03:46:36.762Z,1015.95
2018-08-23T03:48:04.221Z,1015.94
2018-08-23T03:49:31.610Z,1015.93
2018-08-23T03:50:59.240Z,1015.92
2018-08-23T03:52:26.566Z,1015.95
2018-08-23T03:53:54.155Z,1015.95
2018-08-23T03:56:46.942Z,1015.93
2018-08-23T03:58:14.562Z,1015.91
2018-08-23T03:59:40.810Z,1015.92
2018-08-23T04:01:08.074Z,1015.90
2018-08-23T04:02:35.767Z,1015.89
2018-08-23T04:04:03.145Z,1015.88
2018-08-23T04:05:30.374Z,1015.88
2018-08-23T04:06:57.836Z,1015.88
2018-08-23T04:08:25.338Z,1015.88
2018-08-23T04:09:52.722Z,1015.87
2018-08-23T04:11:20.161Z,1015.88
2018-08-23T04:12:46.647Z,1015.90
2018-08-23T04:14:12.770Z,1015.91
2018-08-23T04:15:38.600Z,1015.90
2018-08-23T04:17:06.294Z,1015.90
2018-08-23T04:18:33.596Z,1015.89
2018-08-23T04:20:00.071Z,1015.86
2018-08-23T04:21:27.338Z,1015.82
2018-08-23T04:22:54.925Z,1015.81
2018-08-23T04:24:22.195Z,1015.81
2018-08-23T04:25:49.737Z,1015.81
2018-08-23T04:27:15.581Z,1015.82
2018-08-23T04:28:42.989Z,1015.82
2018-08-23T04:30:10.612Z,1015.83
2018-08-23T04:31:36.822Z,1015.82
2018-08-23T04:33:04.501Z,1015.78
2018-08-23T04:34:30.850Z,1015.75
2018-08-23T04:35:58.095Z,1015.75
2018-08-23T04:37:25.298Z,1015.75
2018-08-23T04:38:52.599Z,1015.74
2018-08-23T04:40:20.113Z,1015.74
2018-08-23T04:41:47.481Z,1015.75
2018-08-23T04:43:14.981Z,1015.74
2018-08-23T04:44:41.492Z,1015.72
2018-08-23T04:46:08.875Z,1015.69
2018-08-23T04:47:36.425Z,1015.70
2018-08-23T04:49:03.837Z,1015.70
2018-08-23T04:50:31.124Z,1015.68
2018-08-23T04:51:58.241Z,1015.67
2018-08-23T04:53:24.639Z,1015.66
2018-08-23T04:54:51.787Z,1015.65
2018-08-23T04:56:19.259Z,1015.64
2018-08-23T04:57:46.739Z,1015.63
2018-08-23T04:59:14.233Z,1015.63
2018-08-23T05:00:41.756Z,1015.61
2018-08-23T05:02:09.152Z,1015.57
2018-08-23T05:03:36.431Z,1015.55
2018-08-23T05:05:03.907Z,1015.56
2018-08-23T05:06:31.051Z,1015.52
2018-08-23T05:08:06.235Z,1015.52
2018-08-23T05:09:28.325Z,1015.52
2018-08-23T05:10:51.961Z,1015.50
2018-08-23T05:12:19.375Z,1015.48
2018-08-23T05:13:46.670Z,1015.48
2018-08-23T05:15:14.238Z,1015.48
2018-08-23T05:16:41.827Z,1015.49
2018-08-23T05:18:09.303Z,1015.46
2018-08-23T05:19:36.775Z,1015.40
2018-08-23T05:21:04.421Z,1015.40
2018-08-23T05:22:31.640Z,1015.39
2018-08-23T05:23:59.239Z,1015.39
2018-08-23T05:25:26.789Z,1015.39
2018-08-23T05:26:54.340Z,1015.38
2018-08-23T05:28:21.800Z,1015.36
2018-08-23T05:29:51.316Z,1015.35
2018-08-23T05:31:15.687Z,1015.35
2018-08-23T05:32:43.064Z,1015.32
2018-08-23T05:34:10.622Z,1015.31
2018-08-23T05:35:38.099Z,1015.32
2018-08-23T05:37:05.433Z,1015.31
2018-08-23T05:38:33.185Z,1015.31
2018-08-23T05:40:00.811Z,1015.30
2018-08-23T05:41:28.347Z,1015.28
2018-08-23T05:42:55.326Z,1015.25
2018-08-23T05:44:22.388Z,1015.25
2018-08-23T05:45:49.918Z,1015.20
2018-08-23T05:47:17.474Z,1015.15
2018-08-23T05:48:44.988Z,1015.11
2018-08-23T05:50:12.785Z,1015.05
2018-08-23T05:51:40.230Z,1014.99
2018-08-23T05:53:06.455Z,1014.91
2018-08-23T05:54:33.906Z,1014.88
2018-08-23T05:56:00.308Z,1014.86
2018-08-23T05:57:26.905Z,1014.83
2018-08-23T05:58:54.407Z,1014.80
2018-08-23T06:00:21.824Z,1014.78
2018-08-23T06:01:47.943Z,1014.80
2018-08-23T06:03:15.334Z,1014.81
2018-08-23T06:04:42.747Z,1014.80
2018-08-23T06:06:10.203Z,1014.84
2018-08-23T06:09:03.868Z,1014.77
2018-08-23T06:10:31.462Z,1014.71
2018-08-23T06:12:09.010Z,1014.67
2018-08-23T06:13:26.187Z,1014.64
2018-08-23T06:14:53.816Z,1014.65
2018-08-23T06:16:21.137Z,1014.66
2018-08-23T06:17:48.729Z,1014.62
2018-08-23T06:19:16.242Z,1014.59
2018-08-23T06:20:42.410Z,1014.57
2018-08-23T06:22:08.904Z,1014.53
2018-08-23T06:23:36.524Z,1014.55
2018-08-23T06:25:11.961Z,1014.55
2018-08-23T06:26:30.151Z,1014.55
2018-08-23T06:27:57.635Z,1014.49
2018-08-23T06:29:23.886Z,1014.51
2018-08-23T06:30:51.345Z,1014.53
2018-08-23T06:32:18.825Z,1014.51
2018-08-23T06:33:46.482Z,1014.49
2018-08-23T06:35:13.866Z,1014.47
2018-08-23T06:36:40.182Z,1014.48
2018-08-23T06:38:07.811Z,1014.47
2018-08-23T06:39:35.437Z,1014.49
2018-08-23T06:41:02.687Z,1014.46
2018-08-23T06:42:27.964Z,1014.46
2018-08-23T06:43:55.415Z,1014.46
2018-08-23T06:45:22.940Z,1014.43
2018-08-23T06:46:50.739Z,1014.40
2018-08-23T06:48:16.831Z,1014.39
2018-08-23T06:49:44.285Z,1014.39
2018-08-23T06:51:10.750Z,1014.37
2018-08-23T06:52:37.199Z,1014.38
2018-08-23T06:54:03.621Z,1014.36
2018-08-23T06:55:31.140Z,1014.34
2018-08-23T06:56:58.603Z,1014.33
2018-08-23T06:58:25.952Z,1014.33
2018-08-23T06:59:53.478Z,1014.30
2018-08-23T07:01:21.019Z,1014.25
2018-08-23T07:02:48.580Z,1014.24
2018-08-23T07:04:16.024Z,1014.21
2018-08-23T07:05:43.582Z,1014.22
2018-08-23T07:07:10.181Z,1014.19
2018-08-23T07:08:37.616Z,1014.19
2018-08-23T07:10:03.870Z,1014.16
2018-08-23T07:11:30.393Z,1014.16
2018-08-23T07:12:57.631Z,1014.16
2018-08-23T07:14:24.267Z,1014.14
2018-08-23T07:15:51.791Z,1014.15
2018-08-23T07:17:19.054Z,1014.14
2018-08-23T07:18:46.679Z,1014.12
2018-08-23T07:20:12.968Z,1014.12
2018-08-23T07:21:40.628Z,1014.12
2018-08-23T07:23:08.200Z,1014.12
2018-08-23T07:24:35.617Z,1014.13
2018-08-23T07:26:01.878Z,1014.12
2018-08-23T07:27:29.459Z,1014.14
2018-08-23T07:28:55.738Z,1014.14
2018-08-23T07:30:30.720Z,1014.14
2018-08-23T07:31:49.105Z,1014.12
2018-08-23T07:33:16.560Z,1014.13
2018-08-23T07:34:44.124Z,1014.13
2018-08-23T07:36:10.728Z,1014.12
2018-08-23T07:37:38.356Z,1014.14
2018-08-23T07:39:06.037Z,1014.14
2018-08-23T07:40:33.495Z,1014.14
2018-08-23T07:42:00.943Z,1014.14
2018-08-23T07:43:28.437Z,1014.16
2018-08-23T07:44:56.145Z,1014.15
2018-08-23T07:46:22.734Z,1014.14
2018-08-23T07:47:50.212Z,1014.12
2018-08-23T07:49:17.924Z,1014.11
2018-08-23T07:50:44.474Z,1014.12
2018-08-23T07:52:11.107Z,1014.07
2018-08-23T07:53:38.669Z,1014.07
2018-08-23T07:55:06.220Z,1014.05
2018-08-23T07:56:33.667Z,1014.06
2018-08-23T07:58:01.156Z,1014.04
2018-08-23T07:59:28.686Z,1014.03
2018-08-23T08:00:56.004Z,1014.04
2018-08-23T08:02:22.939Z,1014.00
2018-08-23T08:03:50.423Z,1013.97
2018-08-23T08:05:17.926Z,1013.95
2018-08-23T08:06:45.291Z,1013.96
2018-08-23T08:08:11.995Z,1013.91
2018-08-23T08:09:39.585Z,1013.93
2018-08-23T08:11:07.144Z,1013.94
2018-08-23T08:12:33.874Z,1013.92
2018-08-23T08:14:01.036Z,1013.91
2018-08-23T08:15:28.604Z,1013.95
2018-08-23T08:16:55.853Z,1013.90
2018-08-23T08:18:23.520Z,1013.90
2018-08-23T08:19:51.088Z,1013.88
2018-08-23T08:21:17.349Z,1013.87
2018-08-23T08:22:44.778Z,1013.87
2018-08-23T08:24:12.544Z,1013.86
2018-08-23T08:25:40.105Z,1013.83
2018-08-23T08:27:07.709Z,1013.85
2018-08-23T08:28:35.336Z,1013.85
2018-08-23T08:30:02.881Z,1013.85
2018-08-23T08:31:30.488Z,1013.84
2018-08-23T08:32:58.041Z,1013.83
2018-08-23T08:34:25.007Z,1013.83
2018-08-23T08:35:51.479Z,1013.82
2018-08-23T08:37:18.928Z,1013.84
2018-08-23T08:38:46.498Z,1013.79
2018-08-23T08:40:13.033Z,1013.78
2018-08-23T08:41:40.248Z,1013.74
2018-08-23T08:43:06.712Z,1013.68
2018-08-23T08:44:34.128Z,1013.72
2018-08-23T08:46:01.775Z,1013.68
2018-08-23T08:47:28.550Z,1013.66
2018-08-23T08:48:55.908Z,1013.65
2018-08-23T08:50:23.040Z,1013.65
2018-08-23T08:51:50.802Z,1013.64
2018-08-23T08:53:18.447Z,1013.58
2018-08-23T08:54:45.933Z,1013.55
2018-08-23T08:56:13.742Z,1013.52
2018-08-23T08:57:40.552Z,1013.49
2018-08-23T08:59:08.268Z,1013.46
2018-08-23T09:00:35.933Z,1013.43
2018-08-23T09:02:02.995Z,1013.42
2018-08-23T09:03:30.483Z,1013.41
2018-08-23T09:04:58.300Z,1013.37
2018-08-23T09:06:25.522Z,1013.35
2018-08-23T09:07:52.093Z,1013.33
2018-08-23T09:09:19.770Z,1013.34
2018-08-23T09:10:46.218Z,1013.29
2018-08-23T09:12:12.786Z,1013.28
2018-08-23T09:13:40.367Z,1013.26
2018-08-23T09:15:08.070Z,1013.25
2018-08-23T09:16:35.841Z,1013.21
2018-08-23T09:18:03.484Z,1013.20
2018-08-23T09:19:30.376Z,1013.14
2018-08-23T09:20:57.986Z,1013.12
2018-08-23T09:22:25.549Z,1013.14
2018-08-23T09:23:52.290Z,1013.13
2018-08-23T09:25:20.255Z,1013.15
2018-08-23T09:26:47.786Z,1013.12
2018-08-23T09:28:15.478Z,1013.10
2018-08-23T09:29:42.528Z,1013.07
2018-08-23T09:31:10.344Z,1013.01
2018-08-23T09:32:37.902Z,1013.04
2018-08-23T09:34:05.751Z,1012.99
2018-08-23T09:35:33.090Z,1012.95
2018-08-23T09:37:00.714Z,1012.94
2018-08-23T09:38:28.532Z,1012.94
2018-08-23T09:39:55.922Z,1012.90
2018-08-23T09:41:23.188Z,1012.90
2018-08-23T09:42:49.469Z,1012.86
2018-08-23T09:44:17.080Z,1012.84
2018-08-23T09:45:44.611Z,1012.83
2018-08-23T09:47:11.165Z,1012.80
2018-08-23T09:48:38.382Z,1012.75
2018-08-23T09:50:06.091Z,1012.75
2018-08-23T09:51:33.431Z,1012.76
2018-08-23T09:53:00.985Z,1012.67
2018-08-23T09:54:28.700Z,1012.69
2018-08-23T09:55:56.348Z,1012.66
2018-08-23T09:57:24.096Z,1012.61
2018-08-23T09:58:51.452Z,1012.62
2018-08-23T10:00:19.176Z,1012.64
2018-08-23T10:01:47.031Z,1012.62
2018-08-23T10:03:13.715Z,1012.62
2018-08-23T10:04:41.356Z,1012.58
2018-08-23T10:06:08.128Z,1012.56
2018-08-23T10:07:34.503Z,1012.57
2018-08-23T10:09:02.166Z,1012.54
2018-08-23T10:10:29.868Z,1012.53
2018-08-23T10:11:57.566Z,1012.48
2018-08-23T10:13:25.232Z,1012.49
2018-08-23T10:14:52.835Z,1012.48
2018-08-23T10:16:20.506Z,1012.47
2018-08-23T10:17:48.189Z,1012.44
2018-08-23T10:19:15.849Z,1012.43
2018-08-23T10:20:43.627Z,1012.41
2018-08-23T10:22:11.306Z,1012.38
2018-08-23T10:23:38.263Z,1012.37
2018-08-23T10:25:05.931Z,1012.34
2018-08-23T10:26:33.575Z,1012.30
2018-08-23T10:28:01.265Z,1012.29
2018-08-23T10:29:28.927Z,1012.26
2018-08-23T10:30:56.112Z,1012.26
2018-08-23T10:32:24.008Z,1012.24
2018-08-23T10:33:51.085Z,1012.27
2018-08-23T10:35:18.630Z,1012.20
2018-08-23T10:36:45.501Z,1012.16
2018-08-23T10:38:13.125Z,1012.18
2018-08-23T10:39:40.815Z,1012.14
2018-08-23T10:41:08.582Z,1012.14
2018-08-23T10:42:36.326Z,1012.14
2018-08-23T10:44:03.894Z,1012.10
2018-08-23T10:45:31.279Z,1012.15
2018-08-23T10:46:58.924Z,1012.12
2018-08-23T10:48:26.131Z,1012.07
2018-08-23T10:49:53.191Z,1012.04
2018-08-23T10:51:20.036Z,1012.10
2018-08-23T10:52:47.367Z,1012.05
2018-08-23T10:54:15.098Z,1012.11
2018-08-23T10:55:42.209Z,1012.04
2018-08-23T10:57:09.683Z,1011.99
2018-08-23T10:58:37.403Z,1012.04
2018-08-23T11:00:04.383Z,1012.00
2018-08-23T11:01:32.070Z,1012.02
2018-08-23T11:02:59.555Z,1012.00
2018-08-23T11:04:27.262Z,1011.98
2018-08-23T11:05:54.730Z,1011.99
2018-08-23T11:07:21.696Z,1011.97
2018-08-23T11:08:49.369Z,1011.96
2018-08-23T11:10:15.922Z,1011.97
2018-08-23T11:11:42.427Z,1011.95
2018-08-23T11:13:08.706Z,1011.98
2018-08-23T11:14:36.464Z,1011.99
2018-08-23T11:16:04.078Z,1011.99
2018-08-23T11:17:30.921Z,1011.95
2018-08-23T11:18:58.475Z,1011.90
2018-08-23T11:20:25.822Z,1011.93
2018-08-23T11:21:53.227Z,1011.91
2018-08-23T11:23:21.032Z,1011.87
2018-08-23T11:24:48.683Z,1011.84
2018-08-23T11:26:15.706Z,1011.85
2018-08-23T11:27:43.370Z,1011.82
2018-08-23T11:29:11.119Z,1011.81
2018-08-23T11:30:38.573Z,1011.82
2018-08-23T11:32:06.151Z,1011.79
2018-08-23T11:33:33.785Z,1011.80
2018-08-23T11:35:00.395Z,1011.76
2018-08-23T11:36:27.186Z,1011.77
2018-08-23T11:37:54.772Z,1011.68
2018-08-23T11:39:22.541Z,1011.63
2018-08-23T11:40:50.269Z,1011.64
2018-08-23T11:42:17.958Z,1011.59
2018-08-23T11:43:45.697Z,1011.64
2018-08-23T11:45:13.380Z,1011.63
2018-08-23T11:46:41.012Z,1011.59
2018-08-23T11:48:08.805Z,1011.58
2018-08-23T11:49:36.472Z,1011.56
2018-08-23T11:51:04.138Z,1011.55
2018-08-23T11:52:30.610Z,1011.57
2018-08-23T11:53:58.301Z,1011.55
2018-08-23T11:55:25.884Z,1011.54
2018-08-23T11:56:53.616Z,1011.52
2018-08-23T11:58:21.186Z,1011.52
2018-08-23T11:59:48.838Z,1011.51
2018-08-23T12:01:16.597Z,1011.49
2018-08-23T12:02:44.365Z,1011.43
2018-08-23T12:04:11.949Z,1011.46
2018-08-23T12:05:38.686Z,1011.41
2018-08-23T12:07:05.021Z,1011.44
2018-08-23T12:08:32.639Z,1011.41
2018-08-23T12:10:00.543Z,1011.46
2018-08-23T12:11:27.439Z,1011.40
2018-08-23T12:12:54.724Z,1011.34
2018-08-23T12:14:21.979Z,1011.31
2018-08-23T12:15:49.680Z,1011.25
2018-08-23T12:17:17.456Z,1011.25
2018-08-23T12:18:45.068Z,1011.21
2018-08-23T12:20:12.737Z,1011.22
2018-08-23T12:21:39.768Z,1011.23
2018-08-23T12:23:07.615Z,1011.22
2018-08-23T12:24:35.244Z,1011.17
2018-08-23T12:26:03.108Z,1011.17
2018-08-23T12:27:30.670Z,1011.17
2018-08-23T12:28:57.630Z,1011.15
2018-08-23T12:30:25.394Z,1011.04
2018-08-23T12:31:52.868Z,1011.13
2018-08-23T12:33:20.586Z,1011.10
2018-08-23T12:34:48.357Z,1011.10
2018-08-23T12:36:15.989Z,1011.08
2018-08-23T12:37:43.895Z,1011.05
2018-08-23T12:39:10.540Z,1011.04
2018-08-23T12:40:37.355Z,1011.02
2018-08-23T12:42:05.006Z,1011.00
2018-08-23T12:43:32.996Z,1010.97
2018-08-23T12:45:00.597Z,1010.98
2018-08-23T12:46:28.382Z,1010.95
2018-08-23T12:47:55.819Z,1010.91
2018-08-23T12:49:22.778Z,1010.69
2018-08-23T12:50:50.457Z,1010.94
2018-08-23T12:52:16.981Z,1010.88
2018-08-23T12:53:44.765Z,1010.91
2018-08-23T12:55:12.520Z,1010.88
2018-08-23T12:56:40.355Z,1010.85
2018-08-23T12:58:08.218Z,1010.84
2018-08-23T12:59:35.467Z,1010.81
2018-08-23T13:01:03.257Z,1010.80
2018-08-23T13:02:31.070Z,1010.84
2018-08-23T13:03:58.011Z,1010.83
2018-08-23T13:05:24.972Z,1010.83
2018-08-23T13:06:52.563Z,1010.80
2018-08-23T13:08:20.523Z,1010.80
2018-08-23T13:09:48.204Z,1010.81
2018-08-23T13:11:15.952Z,1010.79
2018-08-23T13:12:42.711Z,1010.77
2018-08-23T13:14:10.549Z,1010.75
2018-08-23T13:15:38.235Z,1010.71
2018-08-23T13:17:05.892Z,1010.73
2018-08-23T13:18:33.496Z,1010.71
2018-08-23T13:20:00.527Z,1010.72
2018-08-23T13:21:27.895Z,1010.69
2018-08-23T13:22:54.193Z,1010.69
2018-08-23T13:24:21.919Z,1010.67
2018-08-23T13:25:49.768Z,1010.67
2018-08-23T13:27:17.526Z,1010.66
2018-08-23T13:28:44.424Z,1010.69
2018-08-23T13:30:12.121Z,1010.71
2018-08-23T13:31:39.283Z,1010.74
2018-08-23T13:33:07.024Z,1010.75
2018-08-23T13:34:34.830Z,1010.76
2018-08-23T13:36:02.601Z,1010.76
2018-08-23T13:37:29.687Z,1010.77
2018-08-23T13:38:56.453Z,1010.74
2018-08-23T13:40:23.982Z,1010.73
2018-08-23T13:41:51.591Z,1010.72
2018-08-23T13:43:19.496Z,1010.73
2018-08-23T13:44:46.293Z,1010.74
2018-08-23T13:46:13.885Z,1010.75
2018-08-23T13:47:41.588Z,1010.75
2018-08-23T13:49:08.157Z,1010.71
2018-08-23T13:50:35.789Z,1010.68
2018-08-23T13:52:03.431Z,1010.66
2018-08-23T13:53:31.245Z,1010.66
2018-08-23T13:54:58.840Z,1010.67
2018-08-23T13:56:26.468Z,1010.68
2018-08-23T13:57:54.204Z,1010.66
2018-08-23T13:59:21.038Z,1010.67
2018-08-23T14:00:48.776Z,1010.72
2018-08-23T14:02:16.549Z,1010.69
2018-08-23T14:03:44.263Z,1010.68
2018-08-23T14:05:11.762Z,1010.68
2018-08-23T14:06:39.367Z,1010.69
2018-08-23T14:08:07.088Z,1010.68
2018-08-23T14:09:34.847Z,1010.62
2018-08-23T14:11:01.698Z,1010.59
2018-08-23T14:12:28.955Z,1010.69
2018-08-23T14:13:56.442Z,1010.67
2018-08-23T14:15:23.268Z,1010.61
2018-08-23T14:16:49.697Z,1010.62
2018-08-23T14:18:17.491Z,1010.63
2018-08-23T14:19:44.256Z,1010.64
2018-08-23T14:21:11.849Z,1010.63
2018-08-23T14:22:39.603Z,1010.63
2018-08-23T14:24:07.348Z,1010.64
2018-08-23T14:25:31.912Z,1010.66
2018-08-23T14:27:02.688Z,1010.66
2018-08-23T14:28:29.275Z,1010.60
2018-08-23T14:29:56.542Z,1010.61
2018-08-23T14:31:24.455Z,1010.56
2018-08-23T14:32:50.893Z,1010.55
2018-08-23T14:34:18.534Z,1010.53
2018-08-23T14:35:46.312Z,1010.50
2018-08-23T14:37:12.934Z,1010.52
2018-08-23T14:38:40.659Z,1010.44
2018-08-23T14:40:08.386Z,1010.42
2018-08-23T14:41:36.073Z,1010.43
2018-08-23T14:43:02.740Z,1010.43
2018-08-23T14:44:30.380Z,1010.39
2018-08-23T14:45:57.876Z,1010.41
2018-08-23T14:47:25.568Z,1010.42
2018-08-23T14:48:53.232Z,1010.39
2018-08-23T14:50:21.038Z,1010.35
2018-08-23T14:51:48.769Z,1010.38
2018-08-23T14:53:16.586Z,1010.40
2018-08-23T14:54:44.194Z,1010.37
2018-08-23T14:56:11.803Z,1010.38
2018-08-23T14:57:39.572Z,1010.35
2018-08-23T14:59:06.399Z,1010.30
2018-08-23T15:00:32.910Z,1010.26
2018-08-23T15:02:00.655Z,1010.27
2018-08-23T15:03:28.247Z,1010.27
2018-08-23T15:04:55.940Z,1010.25
2018-08-23T15:06:23.509Z,1010.29
2018-08-23T15:07:51.081Z,1010.30
2018-08-23T15:09:18.803Z,1010.31
2018-08-23T15:10:46.255Z,1010.32
2018-08-23T15:12:14.036Z,1010.33
2018-08-23T15:13:41.684Z,1010.33
2018-08-23T15:15:09.382Z,1010.30
2018-08-23T15:16:37.009Z,1010.26
2018-08-23T15:18:04.721Z,1010.29
2018-08-23T15:19:32.462Z,1010.23
2018-08-23T15:21:00.086Z,1010.19
2018-08-23T15:22:27.799Z,1010.26
2018-08-23T15:23:54.565Z,1010.25
2018-08-23T15:25:21.594Z,1010.24
2018-08-23T15:26:49.065Z,1010.24
2018-08-23T15:28:15.609Z,1010.24
2018-08-23T15:29:43.429Z,1010.23
2018-08-23T15:31:11.063Z,1010.20
2018-08-23T15:32:38.724Z,1010.20
2018-08-23T15:34:05.950Z,1010.20
2018-08-23T15:35:33.489Z,1010.22
2018-08-23T15:37:01.102Z,1010.21
2018-08-23T15:38:28.778Z,1010.21
2018-08-23T15:39:56.453Z,1010.19
2018-08-23T15:41:23.521Z,1010.20
2018-08-23T15:42:51.145Z,1010.18
2018-08-23T15:44:17.862Z,1010.22
2018-08-23T15:45:45.574Z,1010.24
2018-08-23T15:47:13.189Z,1010.26
2018-08-23T15:48:40.975Z,1010.27
2018-08-23T15:50:08.616Z,1010.26
2018-08-23T15:51:36.161Z,1010.28
2018-08-23T15:53:03.955Z,1010.27
2018-08-23T15:54:31.516Z,1010.28
2018-08-23T15:55:59.274Z,1010.31
2018-08-23T15:57:26.872Z,1010.28
2018-08-23T15:58:53.972Z,1010.26
2018-08-23T16:00:21.681Z,1010.26
2018-08-23T16:01:48.324Z,1010.23
2018-08-23T16:03:15.906Z,1010.21
2018-08-23T16:04:42.564Z,1010.22
2018-08-23T16:06:10.247Z,1010.23
2018-08-23T16:07:37.875Z,1010.22
2018-08-23T16:09:05.468Z,1010.23
2018-08-23T16:10:33.087Z,1010.21
2018-08-23T16:11:59.978Z,1010.23
2018-08-23T16:13:26.809Z,1010.20
2018-08-23T16:14:54.488Z,1010.23
2018-08-23T16:16:22.147Z,1010.22
2018-08-23T16:17:49.924Z,1010.23
2018-08-23T16:19:17.316Z,1010.23
2018-08-23T16:20:43.871Z,1010.22
2018-08-23T16:22:11.714Z,1010.23
2018-08-23T16:23:39.450Z,1010.20
2018-08-23T16:25:07.146Z,1010.23
2018-08-23T16:26:33.789Z,1010.21
2018-08-23T16:28:01.295Z,1010.22
2018-08-23T16:29:27.843Z,1010.20
2018-08-23T16:30:55.397Z,1010.20
2018-08-23T16:32:22.982Z,1010.19
2018-08-23T16:33:50.654Z,1010.22
2018-08-23T16:35:18.300Z,1010.20
2018-08-23T16:36:44.688Z,1010.19
2018-08-23T16:38:12.447Z,1010.19
2018-08-23T16:39:39.223Z,1010.21
2018-08-23T16:41:05.948Z,1010.23
2018-08-23T16:42:33.639Z,1010.27
2018-08-23T16:44:01.329Z,1010.26
2018-08-23T16:45:28.718Z,1010.25
2018-08-23T16:46:56.078Z,1010.23
2018-08-23T16:48:23.742Z,1010.21
2018-08-23T16:49:51.335Z,1010.21
2018-08-23T16:51:19.071Z,1010.20
2018-08-23T16:52:46.690Z,1010.24
2018-08-23T16:54:14.387Z,1010.26
2018-08-23T16:55:42.108Z,1010.26
2018-08-23T16:57:09.683Z,1010.24
2018-08-23T16:58:37.563Z,1010.25
2018-08-23T17:00:05.198Z,1010.25
2018-08-23T17:01:32.701Z,1010.22
2018-08-23T17:03:00.351Z,1010.21
2018-08-23T17:04:27.062Z,1010.21
2018-08-23T17:05:54.162Z,1010.22
2018-08-23T17:07:21.328Z,1010.21
2018-08-23T17:08:49.032Z,1010.23
2018-08-23T17:10:16.800Z,1010.21
2018-08-23T17:11:43.577Z,1010.22
2018-08-23T17:13:11.248Z,1010.20
2018-08-23T17:14:38.434Z,1010.21
2018-08-23T17:16:05.926Z,1010.19
2018-08-23T17:17:33.550Z,1010.20
2018-08-23T17:19:00.028Z,1010.21
2018-08-23T17:20:27.762Z,1010.23
2018-08-23T17:21:55.266Z,1010.22
2018-08-23T17:23:22.542Z,1010.24
2018-08-23T17:24:49.536Z,1010.23
2018-08-23T17:26:17.093Z,1010.18
2018-08-23T17:27:44.753Z,1010.19
2018-08-23T17:29:12.337Z,1010.21
2018-08-23T17:30:40.162Z,1010.20
2018-08-23T17:32:07.747Z,1010.21
2018-08-23T17:33:35.298Z,1010.19
2018-08-23T17:35:02.040Z,1010.23
2018-08-23T17:36:29.645Z,1010.21
2018-08-23T17:37:56.912Z,1010.24
2018-08-23T17:39:24.562Z,1010.21
2018-08-23T17:40:51.985Z,1010.17